createdAt,value
2023-02-03T00:00:42.006Z,10.68
2023-02-03T00:03:27.853Z,12.63
2023-02-03T00:06:13.463Z,12.50
2023-02-03T00:08:59.531Z,12.48
2023-02-03T00:11:45.027Z,12.48
2023-02-03T00:14:30.388Z,9.20
2023-02-03T00:17:15.886Z,12.20
2023-02-03T00:20:01.482Z,12.43
2023-02-03T00:22:46.711Z,10.77
2023-02-03T00:25:32.434Z,12.07
2023-02-03T00:28:18.089Z,13.88
2023-02-03T00:31:04.093Z,13.55
2023-02-03T00:33:55.032Z,16.10
2023-02-03T00:36:42.029Z,10.40
2023-02-03T00:39:27.970Z,13.23
2023-02-03T00:42:14.806Z,14.40
2023-02-03T00:45:00.145Z,11.77
2023-02-03T00:47:46.439Z,16.48
2023-02-03T00:50:31.875Z,7.60
2023-02-03T00:53:17.321Z,14.02
2023-02-03T00:56:02.747Z,12.07
2023-02-03T00:58:48.311Z,11.45
2023-02-03T01:01:34.631Z,11.70
2023-02-03T01:04:20.061Z,13.35
2023-02-03T01:07:05.484Z,9.15
2023-02-03T01:09:50.790Z,11.10
2023-02-03T01:12:36.257Z,12.15
2023-02-03T01:15:21.968Z,5.55
2023-02-03T01:18:08.053Z,11.52
2023-02-03T01:20:53.639Z,14.50
2023-02-03T01:23:39.449Z,14.38
2023-02-03T01:26:25.107Z,9.10
2023-02-03T01:29:11.038Z,9.75
2023-02-03T01:31:56.526Z,9.13
2023-02-03T01:34:41.893Z,9.48
2023-02-03T01:37:27.451Z,12.43
2023-02-03T01:40:13.086Z,11.85
2023-02-03T01:42:58.611Z,11.18
2023-02-03T01:45:45.919Z,7.50
2023-02-03T01:48:35.187Z,12.65
2023-02-03T01:51:22.116Z,10.45
2023-02-03T01:54:12.524Z,9.23
2023-02-03T01:57:14.345Z,8.13
2023-02-03T02:00:01.182Z,13.10
2023-02-03T02:02:48.988Z,8.65
2023-02-03T02:05:49.045Z,13.07
2023-02-03T02:08:36.179Z,10.10
2023-02-03T02:11:22.156Z,10.00
2023-02-03T02:14:07.964Z,8.90
2023-02-03T02:17:03.391Z,10.20
2023-02-03T02:20:27.320Z,9.70
2023-02-03T02:23:39.478Z,9.10
2023-02-03T02:26:40.436Z,11.68
2023-02-03T02:29:46.203Z,8.23
2023-02-03T02:32:56.745Z,9.43
2023-02-03T02:35:55.470Z,9.07
2023-02-03T02:39:02.715Z,10.60
2023-02-03T02:41:56.893Z,10.32
2023-02-03T02:44:59.440Z,9.55
2023-02-03T02:47:45.710Z,19.23
2023-02-03T02:50:38.125Z,9.07
2023-02-03T02:53:28.606Z,10.95
2023-02-03T02:56:16.787Z,10.57
2023-02-03T02:59:05.700Z,10.52
2023-02-03T03:01:51.514Z,8.27
2023-02-03T03:04:36.994Z,9.35
2023-02-03T03:07:26.621Z,10.15
2023-02-03T03:10:15.890Z,10.48
2023-02-03T03:13:09.809Z,10.57
2023-02-03T03:15:58.524Z,10.02
2023-02-03T03:19:07.583Z,9.43
2023-02-03T03:21:57.198Z,8.00
2023-02-03T03:24:49.089Z,10.77
2023-02-03T03:27:39.570Z,8.88
2023-02-03T03:30:29.575Z,7.47
2023-02-03T03:33:15.342Z,13.35
2023-02-03T03:36:28.613Z,11.55
2023-02-03T03:39:31.843Z,10.93
2023-02-03T03:42:36.318Z,10.77
2023-02-03T03:45:35.668Z,14.43
2023-02-03T03:48:53.299Z,12.73
2023-02-03T03:52:05.194Z,10.65
2023-02-03T03:54:52.423Z,9.82
2023-02-03T03:57:46.549Z,11.05
2023-02-03T04:00:35.302Z,9.93
2023-02-03T04:03:28.841Z,11.80
2023-02-03T04:06:14.318Z,8.50
2023-02-03T04:08:59.518Z,13.63
2023-02-03T04:12:02.846Z,12.65
2023-02-03T04:14:47.906Z,11.52
2023-02-03T04:17:36.029Z,11.15
2023-02-03T04:20:21.440Z,10.57
2023-02-03T04:23:07.011Z,12.45
2023-02-03T04:25:52.196Z,10.63
2023-02-03T04:28:37.706Z,9.02
2023-02-03T04:31:23.542Z,8.98
2023-02-03T04:34:08.772Z,11.52
2023-02-03T04:36:54.222Z,8.30
2023-02-03T04:39:39.459Z,13.82
2023-02-03T04:42:25.693Z,10.82
2023-02-03T04:45:12.237Z,11.77
2023-02-03T04:47:57.571Z,14.93
2023-02-03T04:50:43.014Z,10.48
2023-02-03T04:53:28.394Z,12.43
2023-02-03T04:56:15.504Z,10.90
2023-02-03T04:59:00.736Z,12.35
2023-02-03T05:01:45.988Z,7.45
2023-02-03T05:04:32.390Z,12.77
2023-02-03T05:07:18.018Z,9.82
2023-02-03T05:10:04.362Z,10.18
2023-02-03T05:12:49.849Z,11.65
2023-02-03T05:15:35.172Z,9.38
2023-02-03T05:18:20.695Z,11.10
2023-02-03T05:21:06.386Z,11.35
2023-02-03T05:23:51.884Z,14.32
2023-02-03T05:26:37.703Z,10.80
2023-02-03T05:29:22.758Z,11.85
2023-02-03T05:32:08.279Z,12.77
2023-02-03T05:34:53.775Z,11.68
2023-02-03T05:37:39.357Z,11.32
2023-02-03T05:40:44.169Z,9.73
2023-02-03T05:43:29.425Z,12.38
2023-02-03T05:46:14.897Z,9.52
2023-02-03T05:49:00.094Z,9.98
2023-02-03T05:51:46.571Z,12.25
2023-02-03T05:54:31.821Z,11.55
2023-02-03T05:57:18.344Z,11.55
2023-02-03T06:00:04.418Z,11.80
2023-02-03T06:03:04.528Z,13.80
2023-02-03T06:05:50.417Z,8.57
2023-02-03T06:08:35.780Z,10.60
2023-02-03T06:11:21.278Z,14.90
2023-02-03T06:14:07.122Z,10.90
2023-02-03T06:16:52.570Z,12.48
2023-02-03T06:19:37.924Z,14.35
2023-02-03T06:22:23.690Z,11.73
2023-02-03T06:25:11.831Z,18.45
2023-02-03T06:27:59.136Z,11.85
2023-02-03T06:30:44.431Z,13.40
2023-02-03T06:33:30.071Z,13.68
2023-02-03T06:36:15.419Z,16.80
2023-02-03T06:39:00.993Z,12.07
2023-02-03T06:41:46.525Z,15.90
2023-02-03T06:44:32.078Z,13.10
2023-02-03T06:47:17.381Z,13.02
2023-02-03T06:50:03.007Z,11.98
2023-02-03T06:52:50.159Z,9.57
2023-02-03T06:55:35.639Z,8.55
2023-02-03T06:58:21.128Z,9.90
2023-02-03T07:01:06.643Z,11.65
2023-02-03T07:03:52.401Z,9.00
2023-02-03T07:06:37.876Z,11.93
2023-02-03T07:09:23.486Z,14.77
2023-02-03T07:12:09.524Z,13.98
2023-02-03T07:14:55.213Z,11.52
2023-02-03T07:17:40.849Z,12.15
2023-02-03T07:20:29.032Z,11.27
2023-02-03T07:23:14.716Z,17.30
2023-02-03T07:26:01.383Z,14.02
2023-02-03T07:28:46.999Z,10.30
2023-02-03T07:31:32.321Z,15.20
2023-02-03T07:34:17.559Z,15.65
2023-02-03T07:37:03.016Z,15.63
2023-02-03T07:39:48.562Z,11.88
2023-02-03T07:42:34.362Z,11.60
2023-02-03T07:45:22.266Z,11.50
2023-02-03T07:48:07.639Z,11.13
2023-02-03T07:50:53.188Z,10.07
2023-02-03T07:53:38.639Z,15.60
2023-02-03T07:56:24.088Z,11.70
2023-02-03T07:59:09.595Z,13.15
2023-02-03T08:01:56.287Z,14.55
2023-02-03T08:04:41.631Z,11.82
2023-02-03T08:07:27.227Z,12.60
2023-02-03T08:10:15.314Z,15.13
2023-02-03T08:13:00.792Z,10.55
2023-02-03T08:15:47.672Z,17.77
2023-02-03T08:18:32.962Z,9.00
2023-02-03T08:21:18.406Z,12.45
2023-02-03T08:24:04.050Z,12.98
2023-02-03T08:26:49.817Z,11.05
2023-02-03T08:29:35.093Z,13.73
2023-02-03T08:32:22.443Z,12.63
2023-02-03T08:35:08.152Z,15.15
2023-02-03T08:37:53.711Z,11.30
2023-02-03T08:40:39.135Z,11.60
2023-02-03T08:43:24.296Z,15.00
2023-02-03T08:46:11.746Z,10.05
2023-02-03T08:48:57.175Z,11.18
2023-02-03T08:51:42.669Z,10.00
2023-02-03T08:54:27.914Z,11.65
2023-02-03T08:57:13.775Z,10.48
2023-02-03T08:59:58.885Z,11.38
2023-02-03T09:02:44.358Z,13.35
2023-02-03T09:05:31.299Z,8.05
2023-02-03T09:08:19.623Z,10.85
2023-02-03T09:11:12.682Z,7.53
2023-02-03T09:13:58.055Z,11.13
2023-02-03T09:16:43.415Z,13.20
2023-02-03T09:19:29.622Z,12.52
2023-02-03T09:22:14.764Z,10.05
2023-02-03T09:25:00.260Z,14.27
2023-02-03T09:27:46.094Z,7.38
2023-02-03T09:30:31.966Z,8.13
2023-02-03T09:33:17.634Z,10.52
2023-02-03T09:36:04.143Z,9.27
2023-02-03T09:38:49.483Z,7.47
2023-02-03T09:42:16.785Z,9.27
2023-02-03T09:45:14.851Z,10.88
2023-02-03T09:48:07.446Z,15.65
2023-02-03T09:50:53.551Z,8.93
2023-02-03T09:53:45.543Z,9.10
2023-02-03T09:56:34.228Z,7.80
2023-02-03T09:59:19.881Z,10.23
2023-02-03T10:02:18.760Z,9.93
2023-02-03T10:05:17.617Z,10.93
2023-02-03T10:08:13.679Z,11.20
2023-02-03T10:11:11.362Z,8.13
2023-02-03T10:14:08.530Z,10.75
2023-02-03T10:17:13.887Z,12.48
2023-02-03T10:20:21.438Z,12.90
2023-02-03T10:23:29.519Z,10.07
2023-02-03T10:26:20.481Z,10.82
2023-02-03T10:29:32.932Z,10.57
2023-02-03T10:32:18.411Z,13.75
2023-02-03T10:35:05.922Z,12.85
2023-02-03T10:37:57.399Z,11.93
2023-02-03T10:40:42.650Z,16.35
2023-02-03T10:43:51.332Z,12.25
2023-02-03T10:46:39.921Z,12.00
2023-02-03T10:49:27.567Z,9.52
2023-02-03T10:52:29.892Z,13.63
2023-02-03T10:55:35.672Z,14.55
2023-02-03T10:58:29.308Z,8.52
2023-02-03T11:01:17.538Z,15.82
2023-02-03T11:04:04.702Z,11.00
2023-02-03T11:07:01.723Z,12.82
2023-02-03T11:09:47.119Z,11.38
2023-02-03T11:12:32.593Z,13.55
2023-02-03T11:15:18.074Z,8.95
2023-02-03T11:18:04.041Z,11.10
2023-02-03T11:20:49.332Z,11.55
2023-02-03T11:23:35.074Z,14.65
2023-02-03T11:26:30.860Z,10.88
2023-02-03T11:29:34.300Z,11.77
2023-02-03T11:32:32.271Z,9.85
2023-02-03T11:35:24.431Z,15.07
2023-02-03T11:38:32.957Z,6.35
2023-02-03T11:41:22.459Z,9.88
2023-02-03T11:44:18.403Z,11.85
2023-02-03T11:47:14.096Z,10.73
2023-02-03T11:50:19.481Z,9.52
2023-02-03T11:53:04.980Z,11.00
2023-02-03T11:56:04.970Z,11.05
2023-02-03T11:58:59.169Z,11.68
2023-02-03T12:01:52.977Z,12.23
2023-02-03T12:05:14.602Z,9.98
2023-02-03T12:08:22.126Z,21.05
2023-02-03T12:11:33.718Z,11.68
2023-02-03T12:14:46.644Z,12.43
2023-02-03T12:20:49.668Z,12.13
2023-02-03T12:23:47.726Z,17.00
2023-02-03T12:26:59.995Z,15.98
2023-02-03T12:29:54.874Z,15.20
2023-02-03T12:32:48.474Z,14.13
2023-02-03T12:35:40.801Z,17.08
2023-02-03T12:38:34.921Z,15.18
2023-02-03T12:41:28.758Z,16.55
2023-02-03T12:44:42.539Z,14.85
2023-02-03T12:47:34.142Z,22.70
2023-02-03T12:50:21.830Z,16.33
2023-02-03T12:53:25.860Z,14.80
2023-02-03T12:56:16.246Z,17.27
2023-02-03T12:59:06.489Z,19.80
2023-02-03T13:02:18.443Z,12.00
2023-02-03T13:05:52.861Z,14.32
2023-02-03T13:08:46.255Z,16.98
2023-02-03T13:11:53.964Z,18.02
2023-02-03T13:15:05.417Z,18.48
2023-02-03T13:18:26.507Z,13.00
2023-02-03T13:21:12.686Z,21.92
2023-02-03T13:23:58.536Z,20.25
2023-02-03T13:27:20.441Z,18.38
2023-02-03T13:30:34.210Z,19.20
2023-02-03T13:33:19.738Z,14.15
2023-02-03T13:36:26.120Z,19.92
2023-02-03T13:39:20.449Z,18.15
2023-02-03T13:42:12.695Z,22.88
2023-02-03T13:45:27.073Z,19.75
2023-02-03T13:48:25.602Z,18.00
2023-02-03T13:51:17.801Z,13.52
2023-02-03T13:54:07.663Z,21.40
2023-02-03T13:56:59.835Z,23.13
2023-02-03T13:59:46.247Z,15.77
2023-02-03T14:02:43.252Z,21.17
2023-02-03T14:05:42.523Z,21.45
2023-02-03T14:08:27.871Z,17.27
2023-02-03T14:11:39.835Z,19.98
2023-02-03T14:14:25.202Z,18.50
2023-02-03T14:17:35.671Z,24.95
2023-02-03T14:20:43.453Z,22.23
2023-02-03T14:23:38.530Z,15.65
2023-02-03T14:26:31.706Z,23.02
2023-02-03T14:29:35.528Z,24.55
2023-02-03T14:32:20.976Z,18.75
2023-02-03T14:35:17.098Z,26.33
2023-02-03T14:38:06.429Z,23.80
2023-02-03T14:41:02.659Z,23.40
2023-02-03T14:44:04.409Z,23.80
2023-02-03T14:47:10.557Z,15.88
2023-02-03T14:50:17.230Z,25.73
2023-02-03T14:53:24.589Z,20.85
2023-02-03T14:56:25.067Z,25.33
2023-02-03T14:59:11.238Z,22.67
2023-02-03T15:01:56.653Z,19.13
2023-02-03T15:04:45.481Z,26.20
2023-02-03T15:07:44.654Z,17.63
2023-02-03T15:10:43.746Z,19.60
2023-02-03T15:13:32.587Z,25.85
2023-02-03T15:16:25.975Z,31.45
2023-02-03T15:19:20.393Z,27.08
2023-02-03T15:22:20.019Z,20.00
2023-02-03T15:25:18.096Z,23.63
2023-02-03T15:28:19.328Z,19.55
2023-02-03T15:31:26.866Z,24.05
2023-02-03T15:34:23.208Z,16.65
2023-02-03T15:37:32.638Z,22.38
2023-02-03T15:40:21.713Z,16.85
2023-02-03T15:43:25.620Z,25.98
2023-02-03T15:46:19.855Z,18.67
2023-02-03T15:49:18.175Z,22.40
2023-02-03T15:52:09.796Z,19.13
2023-02-03T15:55:08.126Z,20.52
2023-02-03T15:57:53.764Z,20.00
2023-02-03T16:00:40.812Z,17.73
2023-02-03T16:03:54.179Z,20.08
2023-02-03T16:06:43.649Z,24.67
2023-02-03T16:09:32.981Z,33.50
2023-02-03T16:12:26.956Z,18.65
2023-02-03T16:15:23.758Z,15.93
2023-02-03T16:18:18.081Z,21.52
2023-02-03T16:21:05.488Z,25.17
2023-02-03T16:23:50.840Z,21.55
2023-02-03T16:26:39.318Z,17.35
2023-02-03T16:29:48.541Z,20.70
2023-02-03T16:32:52.149Z,15.07
2023-02-03T16:35:56.323Z,18.55
2023-02-03T16:39:08.235Z,26.55
2023-02-03T16:42:12.038Z,24.38
2023-02-03T16:45:17.552Z,18.15
2023-02-03T16:48:22.507Z,20.63
2023-02-03T16:51:15.297Z,18.88
2023-02-03T16:54:00.746Z,19.08
2023-02-03T16:56:47.315Z,21.90
2023-02-03T16:59:32.802Z,19.58
2023-02-03T17:02:18.469Z,22.55
2023-02-03T17:05:03.952Z,20.23
2023-02-03T17:07:51.211Z,22.40
2023-02-03T17:10:38.621Z,22.80
2023-02-03T17:13:24.539Z,24.77
2023-02-03T17:16:19.520Z,21.88
2023-02-03T17:19:05.058Z,16.30
2023-02-03T17:21:51.377Z,21.35
2023-02-03T17:24:36.719Z,15.90
2023-02-03T17:27:22.109Z,21.65
2023-02-03T17:30:08.377Z,21.50
2023-02-03T17:32:53.478Z,22.15
2023-02-03T17:35:40.713Z,16.85
2023-02-03T17:38:25.760Z,18.33
2023-02-03T17:53:30.989Z,21.08
2023-02-03T17:56:20.477Z,22.95
2023-02-03T17:59:05.899Z,22.35
2023-02-03T18:01:52.838Z,17.73
2023-02-03T18:04:38.437Z,19.95
2023-02-03T18:07:23.957Z,18.88
2023-02-03T18:10:09.659Z,18.15
2023-02-03T18:12:54.934Z,21.23
2023-02-03T18:15:40.485Z,16.17
2023-02-03T18:18:26.911Z,19.30
2023-02-03T18:21:14.303Z,19.85
2023-02-03T18:24:01.915Z,21.33
2023-02-03T18:26:52.299Z,20.52
2023-02-03T18:29:41.045Z,25.35
2023-02-03T18:32:26.323Z,33.13
2023-02-03T18:35:16.769Z,25.85
2023-02-03T18:38:02.207Z,19.27
2023-02-03T18:40:47.753Z,20.33
2023-02-03T18:43:33.394Z,23.70
2023-02-03T18:46:30.562Z,25.40
2023-02-03T18:49:15.885Z,18.92
2023-02-03T18:52:01.612Z,18.95
2023-02-03T18:54:47.294Z,15.70
2023-02-03T18:57:33.023Z,15.93
2023-02-03T19:00:18.592Z,18.83
2023-02-03T19:03:04.014Z,27.27
2023-02-03T19:05:49.584Z,26.60
2023-02-03T19:08:34.843Z,29.95
2023-02-03T19:11:20.768Z,24.02
2023-02-03T19:14:06.348Z,15.85
2023-02-03T19:16:53.148Z,16.52
2023-02-03T19:19:38.733Z,22.40
2023-02-03T19:22:24.388Z,40.58
2023-02-03T19:25:10.137Z,27.38
2023-02-03T19:27:55.549Z,22.83
2023-02-03T19:30:40.963Z,26.98
2023-02-03T19:33:26.559Z,25.27
2023-02-03T19:36:12.777Z,19.40
2023-02-03T19:38:58.598Z,25.60
2023-02-03T19:41:44.122Z,24.63
2023-02-03T19:44:29.582Z,22.50
2023-02-03T19:47:15.245Z,24.58
2023-02-03T19:50:00.764Z,20.27
2023-02-03T19:52:48.502Z,15.35
2023-02-03T19:55:34.066Z,26.45
2023-02-03T19:58:19.305Z,23.85
2023-02-03T20:01:05.646Z,21.58
2023-02-03T20:03:51.618Z,25.50
2023-02-03T20:06:37.383Z,20.50
2023-02-03T20:09:23.036Z,18.48
2023-02-03T20:12:08.606Z,25.65
2023-02-03T20:14:54.337Z,23.50
2023-02-03T20:17:39.711Z,20.67
2023-02-03T20:20:25.158Z,18.50
2023-02-03T20:23:11.012Z,24.58
2023-02-03T20:25:57.048Z,21.52
2023-02-03T20:28:42.291Z,24.58
2023-02-03T20:31:27.862Z,20.52
2023-02-03T20:34:13.370Z,14.32
2023-02-03T20:37:00.805Z,17.40
2023-02-03T20:39:46.321Z,18.10
2023-02-03T20:42:31.794Z,20.00
2023-02-03T20:45:19.170Z,18.38
2023-02-03T20:48:08.943Z,19.00
2023-02-03T20:50:54.713Z,16.42
2023-02-03T20:53:41.171Z,15.52
2023-02-03T20:56:26.833Z,18.73
2023-02-03T20:59:15.631Z,18.52
2023-02-03T21:02:07.860Z,25.75
2023-02-03T21:04:58.967Z,17.52
2023-02-03T21:07:44.353Z,23.83
2023-02-03T21:10:30.091Z,19.90
2023-02-03T21:13:28.251Z,20.25
2023-02-03T21:16:20.899Z,20.55
2023-02-03T21:21:57.464Z,22.38
2023-02-03T21:24:49.099Z,14.43
2023-02-03T21:27:35.289Z,18.42
2023-02-03T21:30:35.385Z,16.77
2023-02-03T21:33:30.021Z,18.00
2023-02-03T21:36:18.118Z,15.40
2023-02-03T21:39:25.125Z,13.02
2023-02-03T21:42:40.197Z,14.43
2023-02-03T21:45:38.895Z,10.60
2023-02-03T21:48:40.468Z,9.38
2023-02-03T21:51:28.914Z,14.95
2023-02-03T21:54:33.620Z,17.45
2023-02-03T21:57:20.395Z,14.95
2023-02-03T22:00:39.147Z,19.42
2023-02-03T22:03:36.055Z,24.50
2023-02-03T22:06:28.135Z,20.60
2023-02-03T22:09:16.854Z,16.92
2023-02-03T22:12:02.628Z,14.68
2023-02-03T22:14:47.634Z,17.08
2023-02-03T22:17:33.099Z,19.13
2023-02-03T22:20:18.885Z,15.02
2023-02-03T22:23:04.934Z,20.38
2023-02-03T22:25:50.681Z,16.77
2023-02-03T22:28:36.557Z,15.23
2023-02-03T22:31:23.008Z,17.05
2023-02-03T22:34:09.426Z,20.55
2023-02-03T22:36:54.912Z,23.98
2023-02-03T22:39:40.180Z,14.20
2023-02-03T22:42:26.015Z,17.23
2023-02-03T22:45:12.119Z,17.40
2023-02-03T22:48:00.133Z,17.33
2023-02-03T22:50:45.487Z,22.08
2023-02-03T22:53:30.934Z,16.45
2023-02-03T22:56:16.605Z,15.63
2023-02-03T22:59:02.130Z,11.07
2023-02-03T23:01:47.570Z,15.57
2023-02-03T23:04:33.188Z,16.27
2023-02-03T23:07:19.057Z,20.23
2023-02-03T23:10:06.164Z,16.92
2023-02-03T23:12:52.276Z,20.75
2023-02-03T23:15:37.756Z,20.55
2023-02-03T23:18:23.104Z,19.05
2023-02-03T23:21:08.406Z,14.88
2023-02-03T23:23:54.011Z,19.58
2023-02-03T23:26:39.377Z,22.45
2023-02-03T23:29:24.923Z,17.40
2023-02-03T23:32:10.936Z,21.90
2023-02-03T23:35:14.932Z,15.88
2023-02-03T23:38:00.195Z,23.35
2023-02-03T23:40:45.802Z,18.13
2023-02-03T23:43:31.291Z,22.77
2023-02-03T23:46:16.941Z,18.60
2023-02-03T23:49:02.267Z,20.80
2023-02-03T23:51:47.846Z,28.10
2023-02-03T23:54:33.349Z,27.15
2023-02-03T23:57:18.954Z,19.60
